createdAt,value
2023-05-06T00:03:28.214Z,3.20
2023-05-06T00:08:31.388Z,2.97
2023-05-06T00:13:35.871Z,2.63
2023-05-06T00:18:39.123Z,2.83
2023-05-06T00:23:42.279Z,3.17
2023-05-06T00:28:46.761Z,2.57
2023-05-06T00:33:49.900Z,3.00
2023-05-06T00:38:53.015Z,3.07
2023-05-06T00:43:57.474Z,2.80
2023-05-06T00:49:00.702Z,2.63
2023-05-06T00:54:04.704Z,3.07
2023-05-06T00:59:09.564Z,2.90
2023-05-06T01:04:13.523Z,3.30
2023-05-06T01:09:22.515Z,2.90
2023-05-06T01:14:34.318Z,2.77
2023-05-06T01:19:42.271Z,3.27
2023-05-06T01:24:47.819Z,3.50
2023-05-06T01:29:51.267Z,2.73
2023-05-06T01:35:01.238Z,2.90
2023-05-06T01:40:07.739Z,2.80
2023-05-06T01:45:14.750Z,2.53
2023-05-06T01:50:18.180Z,2.87
2023-05-06T01:55:22.862Z,3.20
2023-05-06T02:00:26.969Z,3.30
2023-05-06T02:05:30.184Z,3.43
2023-05-06T02:10:34.649Z,3.23
2023-05-06T02:15:37.845Z,3.13
2023-05-06T02:20:40.913Z,3.20
2023-05-06T02:25:45.384Z,3.17
2023-05-06T02:30:48.569Z,3.10
2023-05-06T02:35:52.006Z,3.17
2023-05-06T02:40:56.452Z,3.10
2023-05-06T02:45:59.843Z,3.33
2023-05-06T02:51:03.174Z,3.10
2023-05-06T02:56:08.093Z,2.93
2023-05-06T03:01:11.366Z,3.23
2023-05-06T03:06:14.522Z,3.60
2023-05-06T03:11:19.011Z,2.63
2023-05-06T03:16:22.169Z,3.57
2023-05-06T03:21:25.422Z,3.10
2023-05-06T03:26:29.959Z,3.30
2023-05-06T03:31:33.129Z,3.60
2023-05-06T03:36:36.214Z,3.70
2023-05-06T03:41:40.811Z,3.10
2023-05-06T03:46:43.956Z,3.57
2023-05-06T03:51:47.330Z,3.47
2023-05-06T03:56:51.803Z,3.70
2023-05-06T04:01:55.020Z,3.57
2023-05-06T04:06:58.115Z,3.07
2023-05-06T04:12:04.024Z,3.70
2023-05-06T04:17:07.360Z,2.87
2023-05-06T04:22:10.442Z,3.50
2023-05-06T04:27:15.301Z,3.43
2023-05-06T04:32:18.442Z,3.60
2023-05-06T04:37:21.851Z,4.30
2023-05-06T04:42:26.473Z,4.80
2023-05-06T04:47:29.577Z,5.17
2023-05-06T04:52:32.681Z,5.17
2023-05-06T04:57:37.244Z,5.03
2023-05-06T05:02:40.388Z,4.47
2023-05-06T05:07:43.579Z,6.47
2023-05-06T05:12:48.051Z,6.33
2023-05-06T05:17:51.890Z,5.20
2023-05-06T05:22:55.036Z,5.00
2023-05-06T05:27:59.514Z,4.90
2023-05-06T05:33:02.717Z,5.73
2023-05-06T05:38:06.947Z,6.10
2023-05-06T05:43:11.538Z,6.63
2023-05-06T05:48:14.729Z,5.70
2023-05-06T05:53:17.847Z,5.57
2023-05-06T05:58:22.365Z,6.33
2023-05-06T06:03:25.574Z,6.03
2023-05-06T06:08:29.866Z,5.37
2023-05-06T06:13:34.910Z,5.60
2023-05-06T06:18:38.109Z,5.90
2023-05-06T06:23:41.343Z,6.30
2023-05-06T06:28:46.038Z,5.63
2023-05-06T06:33:49.133Z,5.50
2023-05-06T06:38:52.210Z,5.83
2023-05-06T06:43:56.688Z,4.30
2023-05-06T06:48:59.840Z,5.50
2023-05-06T06:54:03.224Z,5.20
2023-05-06T06:59:09.045Z,4.93
2023-05-06T07:04:12.126Z,5.67
2023-05-06T07:09:15.260Z,5.83
2023-05-06T07:14:19.748Z,5.63
2023-05-06T07:19:22.822Z,5.40
2023-05-06T07:24:26.023Z,5.20
2023-05-06T07:29:30.668Z,4.90
2023-05-06T07:34:34.548Z,4.90
2023-05-06T07:39:37.648Z,3.97
2023-05-06T07:44:42.118Z,4.83
2023-05-06T07:49:45.822Z,5.00
2023-05-06T07:54:48.935Z,4.73
2023-05-06T07:59:53.959Z,5.37
2023-05-06T08:04:57.275Z,5.30
2023-05-06T08:10:00.515Z,4.93
2023-05-06T08:15:05.794Z,4.30
2023-05-06T08:20:09.947Z,4.70
2023-05-06T08:25:13.253Z,4.67
2023-05-06T08:30:18.217Z,4.40
2023-05-06T08:35:21.464Z,4.43
2023-05-06T08:40:26.990Z,4.40
2023-05-06T08:45:31.789Z,4.00
2023-05-06T08:50:36.801Z,4.50
2023-05-06T08:55:41.423Z,4.23
2023-05-06T09:00:47.343Z,3.17
2023-05-06T09:05:50.548Z,3.53
2023-05-06T09:10:53.701Z,3.30
2023-05-06T09:15:58.135Z,2.47
2023-05-06T09:21:02.563Z,4.47
2023-05-06T09:26:06.199Z,4.50
2023-05-06T09:31:10.829Z,4.13
2023-05-06T09:36:14.403Z,3.60
2023-05-06T09:41:22.920Z,2.83
2023-05-06T09:46:28.479Z,2.03
2023-05-06T09:51:32.594Z,2.43
2023-05-06T09:56:36.589Z,2.50
2023-05-06T10:01:42.067Z,1.90
2023-05-06T10:06:48.979Z,1.87
2023-05-06T10:11:52.976Z,1.60
2023-05-06T10:16:57.578Z,1.20
2023-05-06T10:22:08.235Z,1.30
2023-05-06T10:27:13.334Z,1.30
2023-05-06T10:32:20.933Z,1.30
2023-05-06T10:37:26.009Z,1.30
2023-05-06T10:42:29.381Z,1.03
2023-05-06T10:48:05.872Z,1.00
2023-05-06T10:53:10.419Z,1.10
2023-05-06T10:58:15.765Z,1.10
2023-05-06T11:03:24.964Z,1.20
2023-05-06T11:08:29.536Z,1.30
2023-05-06T11:13:36.547Z,1.20
2023-05-06T11:18:45.975Z,1.27
2023-05-06T11:24:09.122Z,1.47
2023-05-06T11:29:12.504Z,1.60
2023-05-06T11:34:22.725Z,1.50
2023-05-06T11:39:30.725Z,1.70
2023-05-06T11:44:36.131Z,1.57
2023-05-06T11:49:41.211Z,1.60
2023-05-06T11:54:45.683Z,1.50
2023-05-06T11:59:54.297Z,1.30
2023-05-06T12:04:58.441Z,1.47
2023-05-06T12:10:04.380Z,1.43
2023-05-06T12:15:08.788Z,1.30
2023-05-06T12:20:13.452Z,1.17
2023-05-06T12:25:18.938Z,1.30
2023-05-06T12:30:30.945Z,1.50
2023-05-06T12:35:34.337Z,1.30
2023-05-06T12:40:39.113Z,1.20
2023-05-06T12:45:42.330Z,1.10
2023-05-06T12:50:46.386Z,1.13
2023-05-06T12:55:50.861Z,1.10
2023-05-06T13:00:53.987Z,1.20
2023-05-06T13:05:57.250Z,1.00
2023-05-06T13:11:02.613Z,0.90
2023-05-06T13:16:06.718Z,0.90
2023-05-06T13:21:09.944Z,0.97
2023-05-06T13:26:14.547Z,1.10
2023-05-06T13:31:17.655Z,1.13
2023-05-06T13:36:20.742Z,1.00
2023-05-06T13:41:25.915Z,0.80
2023-05-06T13:46:29.095Z,1.00
2023-05-06T13:51:33.602Z,1.10
2023-05-06T13:56:38.146Z,1.10
2023-05-06T14:01:41.577Z,0.90
2023-05-06T14:06:44.716Z,0.90
2023-05-06T14:11:49.241Z,0.93
2023-05-06T14:16:54.547Z,0.83
2023-05-06T14:21:57.715Z,1.00
2023-05-06T14:27:02.225Z,1.20
2023-05-06T14:32:05.700Z,1.10
2023-05-06T14:37:09.068Z,0.90
2023-05-06T14:42:13.942Z,1.00
2023-05-06T14:47:17.039Z,1.10
2023-05-06T14:52:20.178Z,1.03
2023-05-06T14:57:24.716Z,1.00
2023-05-06T15:02:27.994Z,0.93
2023-05-06T15:07:31.511Z,1.00
2023-05-06T15:12:37.686Z,0.83
2023-05-06T15:17:41.766Z,0.93
2023-05-06T15:22:45.069Z,0.90
2023-05-06T15:27:49.528Z,1.20
2023-05-06T15:32:53.106Z,1.37
2023-05-06T15:37:58.775Z,1.10
2023-05-06T15:43:03.363Z,0.90
2023-05-06T15:48:07.029Z,0.90
2023-05-06T15:53:10.119Z,0.90
2023-05-06T15:58:14.570Z,0.77
2023-05-06T16:03:17.705Z,0.93
2023-05-06T16:08:20.826Z,0.90
2023-05-06T16:13:25.536Z,1.00
2023-05-06T16:18:28.791Z,0.90
2023-05-06T16:23:32.047Z,0.80
2023-05-06T16:28:38.111Z,0.90
2023-05-06T16:33:43.094Z,0.80
2023-05-06T16:38:46.582Z,1.00
2023-05-06T16:43:51.349Z,0.70
2023-05-06T16:48:54.545Z,0.90
2023-05-06T16:53:57.652Z,0.70
2023-05-06T16:59:02.117Z,0.80
2023-05-06T17:04:05.456Z,0.80
2023-05-06T17:09:08.554Z,0.90
2023-05-06T17:14:13.787Z,0.97
2023-05-06T17:19:16.880Z,0.97
2023-05-06T17:24:20.669Z,1.00
2023-05-06T17:29:25.180Z,1.00
2023-05-06T17:34:28.289Z,1.17
2023-05-06T17:39:32.929Z,0.90
2023-05-06T17:44:38.220Z,1.30
2023-05-06T17:49:41.421Z,1.10
2023-05-06T17:54:44.844Z,1.10
2023-05-06T17:59:49.887Z,2.10
2023-05-06T18:04:53.067Z,3.80
2023-05-06T18:09:56.467Z,6.80
2023-05-06T18:15:01.394Z,6.83
2023-05-06T18:20:06.533Z,4.63
2023-05-06T18:25:10.388Z,3.10
2023-05-06T18:30:16.966Z,4.60
2023-05-06T18:35:20.155Z,7.13
2023-05-06T18:40:23.278Z,3.87
2023-05-06T18:45:27.855Z,3.57
2023-05-06T18:50:31.067Z,4.50
2023-05-06T18:55:34.179Z,3.23
2023-05-06T19:00:38.902Z,2.67
2023-05-06T19:05:42.088Z,2.00
2023-05-06T19:10:45.408Z,3.97
2023-05-06T19:15:49.957Z,4.83
2023-05-06T19:20:53.519Z,3.60
2023-05-06T19:25:58.019Z,2.40
2023-05-06T19:31:02.597Z,1.67
2023-05-06T19:36:06.739Z,1.43
2023-05-06T19:41:11.033Z,1.83
2023-05-06T19:46:17.031Z,1.60
2023-05-06T19:51:20.489Z,1.40
2023-05-06T19:56:23.752Z,1.57
2023-05-06T20:01:28.626Z,0.97
2023-05-06T20:06:32.006Z,1.20
2023-05-06T20:11:35.168Z,1.63
2023-05-06T20:16:39.961Z,1.67
2023-05-06T20:21:43.166Z,1.30
2023-05-06T20:26:46.298Z,1.60
2023-05-06T20:31:50.915Z,2.70
2023-05-06T20:36:56.249Z,7.03
2023-05-06T20:41:59.801Z,3.63
2023-05-06T20:47:05.764Z,2.87
2023-05-06T20:52:14.367Z,3.07
2023-05-06T20:57:18.099Z,2.73
2023-05-06T21:02:22.718Z,2.70
2023-05-06T21:07:26.225Z,2.63
2023-05-06T21:12:29.508Z,2.53
2023-05-06T21:17:34.134Z,2.37
2023-05-06T21:22:37.299Z,2.10
2023-05-06T21:27:40.387Z,2.10
2023-05-06T21:32:44.915Z,2.33
2023-05-06T21:37:48.126Z,2.10
2023-05-06T21:42:51.462Z,2.47
2023-05-06T21:47:56.009Z,2.40
2023-05-06T21:52:59.228Z,2.40
2023-05-06T21:58:02.354Z,3.03
2023-05-06T22:03:07.150Z,2.97
2023-05-06T22:08:10.822Z,2.30
2023-05-06T22:13:14.053Z,2.33
2023-05-06T22:18:18.563Z,3.00
2023-05-06T22:23:23.137Z,2.20
2023-05-06T22:28:26.417Z,2.87
2023-05-06T22:33:30.921Z,3.10
2023-05-06T22:38:34.216Z,2.60
2023-05-06T22:43:37.302Z,2.90
2023-05-06T22:48:44.757Z,3.03
2023-05-06T22:53:48.137Z,2.57
2023-05-06T22:58:51.337Z,2.20
2023-05-06T23:03:55.828Z,2.37
2023-05-06T23:08:59.080Z,3.27
2023-05-06T23:14:02.350Z,3.10
2023-05-06T23:19:06.857Z,2.53
2023-05-06T23:24:10.100Z,2.87
2023-05-06T23:29:13.216Z,2.40
2023-05-06T23:34:17.790Z,1.93
2023-05-06T23:39:21.810Z,2.23
2023-05-06T23:44:25.287Z,2.80
2023-05-06T23:49:29.782Z,2.07
2023-05-06T23:54:32.921Z,2.70
2023-05-06T23:59:36.164Z,2.50
